Terminal Aerodrome Forecast
Issued by NWS

Home | Current Version | Previous Version | Graphics & Text | Print | Product List | Glossary On
Versions: 1 2 3 4 5 6 7 8 9 10 11 12 13 14
526
FTUS43 KTOP 210542
TAFFOE
TAF
KFOE 210542Z 2106/2206 22012KT P6SM FEW200 WS015/20043KT
     FM210800 25007KT P6SM BKN100
     FM211100 33010KT P6SM OVC100
     FM211500 35018G28KT P6SM SCT080
     FM220000 34008KT P6SM SKC=

USA.gov is the U.S. government's official web portal to all federal, state and local government web resources and services.